sensor_id;sensor_type;location;lat;lon;timestamp;P1;durP1;ratioP1;P2;durP2;ratioP2
23543;SDS011;11950;51.230;4.012;2022-12-17T00:02:44;48.30;;;26.97;;
23543;SDS011;11950;51.230;4.012;2022-12-17T00:05:29;54.17;;;28.03;;
23543;SDS011;11950;51.230;4.012;2022-12-17T00:08:14;50.57;;;27.67;;
23543;SDS011;11950;51.230;4.012;2022-12-17T00:10:59;42.07;;;24.40;;
23543;SDS011;11950;51.230;4.012;2022-12-17T00:13:44;45.87;;;23.20;;
23543;SDS011;11950;51.230;4.012;2022-12-17T00:16:28;43.37;;;24.27;;
23543;SDS011;11950;51.230;4.012;2022-12-17T00:19:13;45.77;;;25.80;;
23543;SDS011;11950;51.230;4.012;2022-12-17T00:21:57;53.40;;;27.30;;
23543;SDS011;11950;51.230;4.012;2022-12-17T00:24:42;52.20;;;27.17;;
23543;SDS011;11950;51.230;4.012;2022-12-17T00:27:27;50.60;;;27.63;;
23543;SDS011;11950;51.230;4.012;2022-12-17T00:30:12;52.80;;;28.67;;
23543;SDS011;11950;51.230;4.012;2022-12-17T00:32:56;52.57;;;29.50;;
23543;SDS011;11950;51.230;4.012;2022-12-17T00:35:42;56.70;;;28.43;;
23543;SDS011;11950;51.230;4.012;2022-12-17T00:38:27;49.80;;;28.17;;
23543;SDS011;11950;51.230;4.012;2022-12-17T00:41:11;51.37;;;28.23;;
23543;SDS011;11950;51.230;4.012;2022-12-17T00:43:57;54.00;;;29.47;;
23543;SDS011;11950;51.230;4.012;2022-12-17T00:46:43;55.73;;;29.63;;
23543;SDS011;11950;51.230;4.012;2022-12-17T00:49:28;53.97;;;29.23;;
23543;SDS011;11950;51.230;4.012;2022-12-17T00:52:12;55.30;;;30.23;;
23543;SDS011;11950;51.230;4.012;2022-12-17T00:54:57;52.97;;;31.27;;
23543;SDS011;11950;51.230;4.012;2022-12-17T00:57:42;60.03;;;32.77;;
23543;SDS011;11950;51.230;4.012;2022-12-17T01:00:27;58.00;;;32.20;;
23543;SDS011;11950;51.230;4.012;2022-12-17T01:03:12;58.20;;;30.63;;
23543;SDS011;11950;51.230;4.012;2022-12-17T01:06:00;74.93;;;41.67;;
23543;SDS011;11950;51.230;4.012;2022-12-17T01:08:46;75.77;;;42.90;;
23543;SDS011;11950;51.230;4.012;2022-12-17T01:11:31;74.63;;;42.40;;
23543;SDS011;11950;51.230;4.012;2022-12-17T01:14:16;73.77;;;40.90;;
23543;SDS011;11950;51.230;4.012;2022-12-17T01:17:01;57.27;;;36.27;;
23543;SDS011;11950;51.230;4.012;2022-12-17T01:19:48;63.73;;;35.23;;
23543;SDS011;11950;51.230;4.012;2022-12-17T01:22:33;55.93;;;33.87;;
23543;SDS011;11950;51.230;4.012;2022-12-17T01:25:18;57.53;;;34.40;;
23543;SDS011;11950;51.230;4.012;2022-12-17T01:28:03;64.83;;;35.27;;
23543;SDS011;11950;51.230;4.012;2022-12-17T01:30:48;57.87;;;33.50;;
23543;SDS011;11950;51.230;4.012;2022-12-17T01:33:32;58.67;;;32.93;;
23543;SDS011;11950;51.230;4.012;2022-12-17T01:36:18;55.10;;;32.80;;
23543;SDS011;11950;51.230;4.012;2022-12-17T01:39:03;53.07;;;32.50;;
23543;SDS011;11950;51.230;4.012;2022-12-17T01:41:48;56.47;;;33.00;;
23543;SDS011;11950;51.230;4.012;2022-12-17T01:48:00;58.83;;;34.07;;
23543;SDS011;11950;51.230;4.012;2022-12-17T01:50:48;62.10;;;32.67;;
23543;SDS011;11950;51.230;4.012;2022-12-17T01:53:40;54.60;;;32.17;;
23543;SDS011;11950;51.230;4.012;2022-12-17T01:56:29;60.20;;;32.97;;
23543;SDS011;11950;51.230;4.012;2022-12-17T01:59:16;60.70;;;33.40;;
23543;SDS011;11950;51.230;4.012;2022-12-17T02:02:05;55.30;;;31.60;;
23543;SDS011;11950;51.230;4.012;2022-12-17T02:04:49;54.53;;;32.80;;
23543;SDS011;11950;51.230;4.012;2022-12-17T02:17:00;55.97;;;32.83;;
23543;SDS011;11950;51.230;4.012;2022-12-17T02:26:28;52.40;;;29.92;;
23543;SDS011;11950;51.230;4.012;2022-12-17T02:29:21;60.57;;;33.63;;
23543;SDS011;11950;51.230;4.012;2022-12-17T02:32:09;58.07;;;32.80;;
23543;SDS011;11950;51.230;4.012;2022-12-17T02:34:57;60.43;;;33.37;;
23543;SDS011;11950;51.230;4.012;2022-12-17T02:37:47;53.17;;;31.95;;
23543;SDS011;11950;51.230;4.012;2022-12-17T02:40:33;54.40;;;31.63;;
23543;SDS011;11950;51.230;4.012;2022-12-17T02:43:20;57.13;;;31.90;;
23543;SDS011;11950;51.230;4.012;2022-12-17T02:46:07;61.47;;;31.80;;
23543;SDS011;11950;51.230;4.012;2022-12-17T02:48:53;53.17;;;31.53;;
23543;SDS011;11950;51.230;4.012;2022-12-17T02:51:38;53.47;;;30.40;;
23543;SDS011;11950;51.230;4.012;2022-12-17T02:54:27;53.77;;;31.90;;
23543;SDS011;11950;51.230;4.012;2022-12-17T02:57:13;57.57;;;31.60;;
23543;SDS011;11950;51.230;4.012;2022-12-17T02:59:58;55.80;;;32.40;;
23543;SDS011;11950;51.230;4.012;2022-12-17T03:02:43;58.60;;;31.87;;
23543;SDS011;11950;51.230;4.012;2022-12-17T03:05:28;58.73;;;32.13;;
23543;SDS011;11950;51.230;4.012;2022-12-17T03:08:20;59.60;;;32.67;;
23543;SDS011;11950;51.230;4.012;2022-12-17T03:11:05;55.70;;;31.47;;
23543;SDS011;11950;51.230;4.012;2022-12-17T03:13:50;57.83;;;31.70;;
23543;SDS011;11950;51.230;4.012;2022-12-17T03:16:35;55.60;;;32.80;;
23543;SDS011;11950;51.230;4.012;2022-12-17T03:19:22;58.37;;;31.97;;
23543;SDS011;11950;51.230;4.012;2022-12-17T03:22:07;56.60;;;31.93;;
23543;SDS011;11950;51.230;4.012;2022-12-17T03:24:51;55.10;;;31.67;;
23543;SDS011;11950;51.230;4.012;2022-12-17T03:27:36;52.43;;;30.87;;
23543;SDS011;11950;51.230;4.012;2022-12-17T03:30:21;53.20;;;31.77;;
23543;SDS011;11950;51.230;4.012;2022-12-17T03:33:07;56.43;;;30.43;;
23543;SDS011;11950;51.230;4.012;2022-12-17T03:35:52;53.43;;;31.70;;
23543;SDS011;11950;51.230;4.012;2022-12-17T03:38:39;58.83;;;31.03;;
23543;SDS011;11950;51.230;4.012;2022-12-17T03:41:23;53.37;;;31.63;;
23543;SDS011;11950;51.230;4.012;2022-12-17T03:44:08;48.83;;;29.83;;
23543;SDS011;11950;51.230;4.012;2022-12-17T03:47:13;54.20;;;31.37;;
23543;SDS011;11950;51.230;4.012;2022-12-17T03:49:57;62.30;;;32.63;;
23543;SDS011;11950;51.230;4.012;2022-12-17T03:52:42;55.20;;;31.30;;
23543;SDS011;11950;51.230;4.012;2022-12-17T03:55:27;50.80;;;29.87;;
23543;SDS011;11950;51.230;4.012;2022-12-17T03:58:12;54.70;;;30.80;;
23543;SDS011;11950;51.230;4.012;2022-12-17T04:00:57;55.03;;;30.13;;
23543;SDS011;11950;51.230;4.012;2022-12-17T04:03:42;54.33;;;29.90;;
23543;SDS011;11950;51.230;4.012;2022-12-17T04:06:27;56.37;;;30.33;;
23543;SDS011;11950;51.230;4.012;2022-12-17T04:09:11;54.47;;;31.40;;
23543;SDS011;11950;51.230;4.012;2022-12-17T04:11:56;58.43;;;31.47;;
23543;SDS011;11950;51.230;4.012;2022-12-17T04:14:41;56.20;;;33.03;;
23543;SDS011;11950;51.230;4.012;2022-12-17T04:17:26;62.43;;;33.97;;
23543;SDS011;11950;51.230;4.012;2022-12-17T04:20:11;64.77;;;37.47;;
23543;SDS011;11950;51.230;4.012;2022-12-17T04:22:56;63.03;;;35.70;;
23543;SDS011;11950;51.230;4.012;2022-12-17T04:25:41;54.87;;;33.87;;
23543;SDS011;11950;51.230;4.012;2022-12-17T04:28:26;60.17;;;33.30;;
23543;SDS011;11950;51.230;4.012;2022-12-17T04:31:10;58.37;;;33.70;;
23543;SDS011;11950;51.230;4.012;2022-12-17T04:33:55;55.90;;;32.53;;
23543;SDS011;11950;51.230;4.012;2022-12-17T04:36:40;55.90;;;31.83;;
23543;SDS011;11950;51.230;4.012;2022-12-17T04:39:25;53.67;;;31.00;;
23543;SDS011;11950;51.230;4.012;2022-12-17T04:42:09;51.10;;;30.87;;
23543;SDS011;11950;51.230;4.012;2022-12-17T04:44:54;54.23;;;30.90;;
23543;SDS011;11950;51.230;4.012;2022-12-17T04:47:39;56.77;;;31.40;;
23543;SDS011;11950;51.230;4.012;2022-12-17T04:50:24;51.03;;;30.93;;
23543;SDS011;11950;51.230;4.012;2022-12-17T04:53:09;52.40;;;30.20;;
23543;SDS011;11950;51.230;4.012;2022-12-17T04:55:54;57.27;;;31.67;;
23543;SDS011;11950;51.230;4.012;2022-12-17T04:58:39;54.47;;;31.27;;
23543;SDS011;11950;51.230;4.012;2022-12-17T05:01:24;47.40;;;29.20;;
23543;SDS011;11950;51.230;4.012;2022-12-17T05:04:09;54.10;;;30.83;;
23543;SDS011;11950;51.230;4.012;2022-12-17T05:06:54;50.90;;;30.87;;
23543;SDS011;11950;51.230;4.012;2022-12-17T05:09:39;53.47;;;29.70;;
23543;SDS011;11950;51.230;4.012;2022-12-17T05:12:23;51.80;;;29.83;;
23543;SDS011;11950;51.230;4.012;2022-12-17T05:15:08;49.10;;;28.10;;
23543;SDS011;11950;51.230;4.012;2022-12-17T05:17:53;49.93;;;28.87;;
23543;SDS011;11950;51.230;4.012;2022-12-17T05:20:38;45.37;;;27.97;;
23543;SDS011;11950;51.230;4.012;2022-12-17T05:23:23;50.83;;;28.67;;
23543;SDS011;11950;51.230;4.012;2022-12-17T05:26:20;50.33;;;28.23;;
23543;SDS011;11950;51.230;4.012;2022-12-17T05:29:06;47.53;;;29.40;;
23543;SDS011;11950;51.230;4.012;2022-12-17T05:31:52;49.80;;;27.97;;
23543;SDS011;11950;51.230;4.012;2022-12-17T05:34:36;48.00;;;27.70;;
23543;SDS011;11950;51.230;4.012;2022-12-17T05:37:21;50.20;;;29.20;;
23543;SDS011;11950;51.230;4.012;2022-12-17T05:40:07;49.13;;;28.67;;
23543;SDS011;11950;51.230;4.012;2022-12-17T05:42:56;46.73;;;28.83;;
23543;SDS011;11950;51.230;4.012;2022-12-17T05:45:46;48.33;;;29.13;;
23543;SDS011;11950;51.230;4.012;2022-12-17T05:48:31;50.27;;;28.20;;
23543;SDS011;11950;51.230;4.012;2022-12-17T05:51:17;47.77;;;28.27;;
23543;SDS011;11950;51.230;4.012;2022-12-17T05:54:03;46.70;;;27.37;;
23543;SDS011;11950;51.230;4.012;2022-12-17T05:56:48;48.40;;;28.73;;
23543;SDS011;11950;51.230;4.012;2022-12-17T05:59:33;49.03;;;27.00;;
23543;SDS011;11950;51.230;4.012;2022-12-17T06:02:17;45.83;;;26.30;;
23543;SDS011;11950;51.230;4.012;2022-12-17T06:05:02;47.10;;;26.03;;
23543;SDS011;11950;51.230;4.012;2022-12-17T06:07:47;46.93;;;27.23;;
23543;SDS011;11950;51.230;4.012;2022-12-17T06:10:31;57.03;;;31.87;;
23543;SDS011;11950;51.230;4.012;2022-12-17T06:13:16;55.37;;;32.37;;
23543;SDS011;11950;51.230;4.012;2022-12-17T06:16:01;57.20;;;29.83;;
23543;SDS011;11950;51.230;4.012;2022-12-17T06:18:46;53.43;;;30.67;;
23543;SDS011;11950;51.230;4.012;2022-12-17T06:21:31;45.43;;;28.17;;
23543;SDS011;11950;51.230;4.012;2022-12-17T06:24:15;47.47;;;28.37;;
23543;SDS011;11950;51.230;4.012;2022-12-17T06:27:00;45.70;;;27.37;;
23543;SDS011;11950;51.230;4.012;2022-12-17T06:29:45;43.97;;;26.43;;
23543;SDS011;11950;51.230;4.012;2022-12-17T06:32:30;47.83;;;25.53;;
23543;SDS011;11950;51.230;4.012;2022-12-17T06:35:15;42.97;;;25.63;;
23543;SDS011;11950;51.230;4.012;2022-12-17T06:38:00;44.47;;;24.47;;
23543;SDS011;11950;51.230;4.012;2022-12-17T06:40:46;44.77;;;25.87;;
23543;SDS011;11950;51.230;4.012;2022-12-17T06:43:31;41.27;;;24.73;;
23543;SDS011;11950;51.230;4.012;2022-12-17T06:46:16;43.03;;;24.87;;
23543;SDS011;11950;51.230;4.012;2022-12-17T06:49:01;41.37;;;24.90;;
23543;SDS011;11950;51.230;4.012;2022-12-17T06:52:05;44.97;;;24.80;;
23543;SDS011;11950;51.230;4.012;2022-12-17T06:54:50;44.03;;;26.17;;
23543;SDS011;11950;51.230;4.012;2022-12-17T06:57:35;50.83;;;27.77;;
23543;SDS011;11950;51.230;4.012;2022-12-17T07:00:19;68.23;;;33.77;;
23543;SDS011;11950;51.230;4.012;2022-12-17T07:03:04;80.37;;;37.57;;
23543;SDS011;11950;51.230;4.012;2022-12-17T07:05:49;74.17;;;35.40;;
23543;SDS011;11950;51.230;4.012;2022-12-17T07:08:34;65.13;;;34.50;;
23543;SDS011;11950;51.230;4.012;2022-12-17T07:11:19;70.50;;;34.23;;
23543;SDS011;11950;51.230;4.012;2022-12-17T07:14:03;62.23;;;30.80;;
23543;SDS011;11950;51.230;4.012;2022-12-17T07:16:48;59.93;;;31.70;;
23543;SDS011;11950;51.230;4.012;2022-12-17T07:19:33;48.83;;;27.93;;
23543;SDS011;11950;51.230;4.012;2022-12-17T07:22:18;53.13;;;27.90;;
23543;SDS011;11950;51.230;4.012;2022-12-17T07:25:03;56.50;;;28.80;;
23543;SDS011;11950;51.230;4.012;2022-12-17T07:27:52;47.03;;;25.57;;
23543;SDS011;11950;51.230;4.012;2022-12-17T07:30:38;43.53;;;25.37;;
23543;SDS011;11950;51.230;4.012;2022-12-17T07:33:23;46.50;;;26.50;;
23543;SDS011;11950;51.230;4.012;2022-12-17T07:36:08;45.00;;;26.67;;
23543;SDS011;11950;51.230;4.012;2022-12-17T07:38:53;45.10;;;26.23;;
23543;SDS011;11950;51.230;4.012;2022-12-17T07:41:37;45.93;;;26.00;;
23543;SDS011;11950;51.230;4.012;2022-12-17T07:44:22;52.97;;;27.23;;
23543;SDS011;11950;51.230;4.012;2022-12-17T07:47:07;50.37;;;28.00;;
23543;SDS011;11950;51.230;4.012;2022-12-17T07:49:52;45.73;;;25.40;;
23543;SDS011;11950;51.230;4.012;2022-12-17T07:52:36;46.97;;;26.23;;
23543;SDS011;11950;51.230;4.012;2022-12-17T07:55:21;47.67;;;26.40;;
23543;SDS011;11950;51.230;4.012;2022-12-17T07:58:08;46.97;;;25.07;;
23543;SDS011;11950;51.230;4.012;2022-12-17T08:00:54;43.07;;;24.37;;
23543;SDS011;11950;51.230;4.012;2022-12-17T08:03:39;43.47;;;23.70;;
23543;SDS011;11950;51.230;4.012;2022-12-17T08:06:24;46.73;;;24.67;;
23543;SDS011;11950;51.230;4.012;2022-12-17T08:09:09;45.03;;;25.27;;
23543;SDS011;11950;51.230;4.012;2022-12-17T08:11:53;42.30;;;24.37;;
23543;SDS011;11950;51.230;4.012;2022-12-17T08:14:38;45.87;;;24.90;;
23543;SDS011;11950;51.230;4.012;2022-12-17T08:36:29;51.63;;;30.60;;
23543;SDS011;11950;51.230;4.012;2022-12-17T08:39:13;50.90;;;29.87;;
23543;SDS011;11950;51.230;4.012;2022-12-17T08:41:58;47.43;;;29.20;;
23543;SDS011;11950;51.230;4.012;2022-12-17T08:44:43;47.17;;;28.10;;
23543;SDS011;11950;51.230;4.012;2022-12-17T08:47:28;52.30;;;28.43;;
23543;SDS011;11950;51.230;4.012;2022-12-17T08:50:13;50.27;;;29.70;;
23543;SDS011;11950;51.230;4.012;2022-12-17T08:52:58;52.27;;;29.03;;
23543;SDS011;11950;51.230;4.012;2022-12-17T08:55:46;46.87;;;27.57;;
23543;SDS011;11950;51.230;4.012;2022-12-17T08:58:31;49.70;;;28.37;;
23543;SDS011;11950;51.230;4.012;2022-12-17T09:01:16;49.53;;;28.73;;
23543;SDS011;11950;51.230;4.012;2022-12-17T09:04:01;52.77;;;30.43;;
23543;SDS011;11950;51.230;4.012;2022-12-17T09:06:46;51.53;;;28.80;;
23543;SDS011;11950;51.230;4.012;2022-12-17T09:09:31;56.27;;;29.93;;
23543;SDS011;11950;51.230;4.012;2022-12-17T09:12:16;52.33;;;29.90;;
23543;SDS011;11950;51.230;4.012;2022-12-17T09:15:01;49.90;;;29.50;;
23543;SDS011;11950;51.230;4.012;2022-12-17T09:17:46;51.23;;;29.90;;
23543;SDS011;11950;51.230;4.012;2022-12-17T09:20:31;53.73;;;28.73;;
23543;SDS011;11950;51.230;4.012;2022-12-17T09:23:16;54.40;;;30.57;;
23543;SDS011;11950;51.230;4.012;2022-12-17T09:26:01;54.27;;;30.43;;
23543;SDS011;11950;51.230;4.012;2022-12-17T09:28:46;48.97;;;28.57;;
23543;SDS011;11950;51.230;4.012;2022-12-17T09:31:32;50.83;;;30.27;;
23543;SDS011;11950;51.230;4.012;2022-12-17T09:34:16;52.33;;;30.53;;
23543;SDS011;11950;51.230;4.012;2022-12-17T09:37:02;57.17;;;31.43;;
23543;SDS011;11950;51.230;4.012;2022-12-17T09:39:47;55.87;;;30.93;;
23543;SDS011;11950;51.230;4.012;2022-12-17T09:45:26;53.93;;;31.20;;
23543;SDS011;11950;51.230;4.012;2022-12-17T09:48:34;55.37;;;30.27;;
23543;SDS011;11950;51.230;4.012;2022-12-17T09:51:42;49.37;;;29.93;;
23543;SDS011;11950;51.230;4.012;2022-12-17T09:54:35;58.70;;;32.00;;
23543;SDS011;11950;51.230;4.012;2022-12-17T09:57:25;56.23;;;32.30;;
23543;SDS011;11950;51.230;4.012;2022-12-17T10:00:14;57.93;;;32.40;;
23543;SDS011;11950;51.230;4.012;2022-12-17T10:03:02;56.72;;;32.03;;
23543;SDS011;11950;51.230;4.012;2022-12-17T10:05:51;55.85;;;33.55;;
23543;SDS011;11950;51.230;4.012;2022-12-17T10:08:36;56.17;;;33.27;;
23543;SDS011;11950;51.230;4.012;2022-12-17T10:11:30;63.58;;;33.83;;
23543;SDS011;11950;51.230;4.012;2022-12-17T10:14:16;63.58;;;34.53;;
23543;SDS011;11950;51.230;4.012;2022-12-17T10:17:03;58.13;;;33.72;;
23543;SDS011;11950;51.230;4.012;2022-12-17T10:19:49;56.50;;;32.90;;
23543;SDS011;11950;51.230;4.012;2022-12-17T10:22:49;55.30;;;32.75;;
23543;SDS011;11950;51.230;4.012;2022-12-17T10:25:34;61.22;;;33.08;;
23543;SDS011;11950;51.230;4.012;2022-12-17T10:28:23;58.33;;;34.38;;
23543;SDS011;11950;51.230;4.012;2022-12-17T10:31:09;60.60;;;33.28;;
23543;SDS011;11950;51.230;4.012;2022-12-17T10:34:05;60.65;;;33.85;;
23543;SDS011;11950;51.230;4.012;2022-12-17T10:37:01;62.10;;;35.55;;
23543;SDS011;11950;51.230;4.012;2022-12-17T10:39:57;66.45;;;35.08;;
23543;SDS011;11950;51.230;4.012;2022-12-17T10:42:44;61.20;;;34.95;;
23543;SDS011;11950;51.230;4.012;2022-12-17T10:48:16;61.75;;;34.97;;
23543;SDS011;11950;51.230;4.012;2022-12-17T10:51:16;62.70;;;35.53;;
23543;SDS011;11950;51.230;4.012;2022-12-17T10:54:24;64.07;;;36.80;;
23543;SDS011;11950;51.230;4.012;2022-12-17T10:57:33;61.72;;;36.75;;
23543;SDS011;11950;51.230;4.012;2022-12-17T11:06:51;61.58;;;35.90;;
23543;SDS011;11950;51.230;4.012;2022-12-17T11:09:42;62.40;;;37.13;;
23543;SDS011;11950;51.230;4.012;2022-12-17T11:12:46;61.85;;;37.05;;
23543;SDS011;11950;51.230;4.012;2022-12-17T11:15:39;56.20;;;34.88;;
23543;SDS011;11950;51.230;4.012;2022-12-17T11:18:47;58.35;;;35.97;;
23543;SDS011;11950;51.230;4.012;2022-12-17T11:21:45;57.90;;;36.35;;
23543;SDS011;11950;51.230;4.012;2022-12-17T11:24:43;56.90;;;36.05;;
23543;SDS011;11950;51.230;4.012;2022-12-17T11:30:35;60.80;;;34.50;;
23543;SDS011;11950;51.230;4.012;2022-12-17T11:33:43;60.53;;;36.08;;
23543;SDS011;11950;51.230;4.012;2022-12-17T11:36:53;60.95;;;37.00;;
23543;SDS011;11950;51.230;4.012;2022-12-17T11:39:48;60.35;;;36.92;;
23543;SDS011;11950;51.230;4.012;2022-12-17T11:43:08;56.65;;;36.58;;
23543;SDS011;11950;51.230;4.012;2022-12-17T11:46:20;57.30;;;35.80;;
23543;SDS011;11950;51.230;4.012;2022-12-17T11:49:22;56.20;;;35.03;;
23543;SDS011;11950;51.230;4.012;2022-12-17T11:55:14;58.95;;;35.40;;
23543;SDS011;11950;51.230;4.012;2022-12-17T11:59:06;62.88;;;35.40;;
23543;SDS011;11950;51.230;4.012;2022-12-17T12:02:12;52.28;;;32.95;;
23543;SDS011;11950;51.230;4.012;2022-12-17T12:11:46;56.50;;;36.00;;
23543;SDS011;11950;51.230;4.012;2022-12-17T12:14:21;57.30;;;34.97;;
23543;SDS011;11950;51.230;4.012;2022-12-17T12:20:20;42.65;;;25.98;;
23543;SDS011;11950;51.230;4.012;2022-12-17T12:26:21;55.38;;;34.22;;
23543;SDS011;11950;51.230;4.012;2022-12-17T12:29:28;52.97;;;35.40;;
23543;SDS011;11950;51.230;4.012;2022-12-17T12:35:03;53.03;;;34.55;;
23543;SDS011;11950;51.230;4.012;2022-12-17T12:37:48;53.03;;;33.58;;
23543;SDS011;11950;51.230;4.012;2022-12-17T12:40:39;56.67;;;34.45;;
23543;SDS011;11950;51.230;4.012;2022-12-17T12:43:34;58.58;;;33.92;;
23543;SDS011;11950;51.230;4.012;2022-12-17T12:46:34;49.42;;;32.33;;
23543;SDS011;11950;51.230;4.012;2022-12-17T12:49:30;50.45;;;32.40;;
23543;SDS011;11950;51.230;4.012;2022-12-17T12:52:21;53.80;;;32.70;;
23543;SDS011;11950;51.230;4.012;2022-12-17T12:55:08;51.17;;;32.78;;
23543;SDS011;11950;51.230;4.012;2022-12-17T13:03:36;51.45;;;31.40;;
23543;SDS011;11950;51.230;4.012;2022-12-17T13:06:41;47.60;;;30.08;;
23543;SDS011;11950;51.230;4.012;2022-12-17T13:14:32;50.33;;;32.28;;
23543;SDS011;11950;51.230;4.012;2022-12-17T13:17:31;47.53;;;29.55;;
23543;SDS011;11950;51.230;4.012;2022-12-17T13:22:48;47.28;;;28.90;;
23543;SDS011;11950;51.230;4.012;2022-12-17T13:25:28;50.35;;;30.55;;
23543;SDS011;11950;51.230;4.012;2022-12-17T13:27:55;51.50;;;29.83;;
23543;SDS011;11950;51.230;4.012;2022-12-17T13:30:29;52.03;;;32.13;;
23543;SDS011;11950;51.230;4.012;2022-12-17T13:35:48;91.15;;;45.22;;
23543;SDS011;11950;51.230;4.012;2022-12-17T13:41:13;53.25;;;30.35;;
23543;SDS011;11950;51.230;4.012;2022-12-17T13:43:47;49.25;;;30.10;;
23543;SDS011;11950;51.230;4.012;2022-12-17T13:46:17;49.90;;;30.10;;
23543;SDS011;11950;51.230;4.012;2022-12-17T13:51:19;48.17;;;28.65;;
23543;SDS011;11950;51.230;4.012;2022-12-17T13:53:50;49.47;;;29.80;;
23543;SDS011;11950;51.230;4.012;2022-12-17T13:56:25;46.72;;;29.88;;
23543;SDS011;11950;51.230;4.012;2022-12-17T13:58:57;53.92;;;32.70;;
23543;SDS011;11950;51.230;4.012;2022-12-17T14:01:27;52.17;;;32.33;;
23543;SDS011;11950;51.230;4.012;2022-12-17T14:03:55;57.75;;;32.83;;
23543;SDS011;11950;51.230;4.012;2022-12-17T14:06:27;52.08;;;31.40;;
23543;SDS011;11950;51.230;4.012;2022-12-17T14:08:57;51.53;;;32.22;;
23543;SDS011;11950;51.230;4.012;2022-12-17T14:11:24;53.13;;;32.13;;
23543;SDS011;11950;51.230;4.012;2022-12-17T14:16:57;52.63;;;32.22;;
23543;SDS011;11950;51.230;4.012;2022-12-17T14:19:23;52.38;;;31.38;;
23543;SDS011;11950;51.230;4.012;2022-12-17T14:21:51;53.47;;;30.48;;
23543;SDS011;11950;51.230;4.012;2022-12-17T14:24:18;48.55;;;30.98;;
23543;SDS011;11950;51.230;4.012;2022-12-17T14:26:51;48.20;;;29.58;;
23543;SDS011;11950;51.230;4.012;2022-12-17T14:29:26;48.30;;;30.20;;
23543;SDS011;11950;51.230;4.012;2022-12-17T14:31:55;52.47;;;30.52;;
23543;SDS011;11950;51.230;4.012;2022-12-17T14:34:23;49.42;;;29.85;;
23543;SDS011;11950;51.230;4.012;2022-12-17T14:36:59;48.30;;;30.48;;
23543;SDS011;11950;51.230;4.012;2022-12-17T14:41:57;49.92;;;30.50;;
23543;SDS011;11950;51.230;4.012;2022-12-17T14:58:05;51.55;;;30.00;;
23543;SDS011;11950;51.230;4.012;2022-12-17T15:00:37;49.75;;;29.73;;
23543;SDS011;11950;51.230;4.012;2022-12-17T15:03:54;50.05;;;30.15;;
23543;SDS011;11950;51.230;4.012;2022-12-17T15:06:08;52.00;;;28.95;;
23543;SDS011;11950;51.230;4.012;2022-12-17T15:08:40;51.80;;;29.67;;
23543;SDS011;11950;51.230;4.012;2022-12-17T15:11:09;52.25;;;29.75;;
23543;SDS011;11950;51.230;4.012;2022-12-17T15:13:38;49.53;;;31.08;;
23543;SDS011;11950;51.230;4.012;2022-12-17T15:16:04;50.67;;;29.70;;
23543;SDS011;11950;51.230;4.012;2022-12-17T15:18:31;55.83;;;33.25;;
23543;SDS011;11950;51.230;4.012;2022-12-17T15:20:57;60.40;;;36.22;;
23543;SDS011;11950;51.230;4.012;2022-12-17T15:23:24;58.78;;;34.38;;
23543;SDS011;11950;51.230;4.012;2022-12-17T15:25:51;53.13;;;32.80;;
23543;SDS011;11950;51.230;4.012;2022-12-17T15:28:19;55.55;;;31.80;;
23543;SDS011;11950;51.230;4.012;2022-12-17T15:30:46;59.10;;;33.60;;
23543;SDS011;11950;51.230;4.012;2022-12-17T15:33:13;55.15;;;31.70;;
23543;SDS011;11950;51.230;4.012;2022-12-17T15:35:40;53.40;;;31.88;;
23543;SDS011;11950;51.230;4.012;2022-12-17T15:38:08;54.53;;;33.13;;
23543;SDS011;11950;51.230;4.012;2022-12-17T15:40:36;57.08;;;33.47;;
23543;SDS011;11950;51.230;4.012;2022-12-17T15:43:02;55.28;;;32.80;;
23543;SDS011;11950;51.230;4.012;2022-12-17T15:48:05;57.80;;;32.20;;
23543;SDS011;11950;51.230;4.012;2022-12-17T15:50:31;54.22;;;29.70;;
23543;SDS011;11950;51.230;4.012;2022-12-17T15:52:58;56.15;;;32.00;;
23543;SDS011;11950;51.230;4.012;2022-12-17T15:55:24;56.05;;;31.90;;
23543;SDS011;11950;51.230;4.012;2022-12-17T15:57:51;58.78;;;34.08;;
23543;SDS011;11950;51.230;4.012;2022-12-17T16:00:17;57.58;;;32.45;;
23543;SDS011;11950;51.230;4.012;2022-12-17T16:02:46;57.25;;;33.10;;
23543;SDS011;11950;51.230;4.012;2022-12-17T16:05:14;64.38;;;34.20;;
23543;SDS011;11950;51.230;4.012;2022-12-17T16:07:41;62.35;;;35.40;;
23543;SDS011;11950;51.230;4.012;2022-12-17T16:10:09;64.25;;;33.92;;
23543;SDS011;11950;51.230;4.012;2022-12-17T16:12:36;58.75;;;33.72;;
23543;SDS011;11950;51.230;4.012;2022-12-17T16:15:03;62.60;;;34.55;;
23543;SDS011;11950;51.230;4.012;2022-12-17T16:17:31;59.20;;;34.80;;
23543;SDS011;11950;51.230;4.012;2022-12-17T16:19:57;60.33;;;34.58;;
23543;SDS011;11950;51.230;4.012;2022-12-17T16:22:25;60.08;;;34.20;;
23543;SDS011;11950;51.230;4.012;2022-12-17T16:24:52;60.63;;;34.17;;
23543;SDS011;11950;51.230;4.012;2022-12-17T16:27:18;62.08;;;33.33;;
23543;SDS011;11950;51.230;4.012;2022-12-17T16:29:45;61.30;;;35.47;;
23543;SDS011;11950;51.230;4.012;2022-12-17T16:32:13;60.53;;;33.90;;
23543;SDS011;11950;51.230;4.012;2022-12-17T16:34:40;56.63;;;33.47;;
23543;SDS011;11950;51.230;4.012;2022-12-17T16:37:06;62.80;;;34.53;;
23543;SDS011;11950;51.230;4.012;2022-12-17T16:39:33;60.85;;;34.63;;
23543;SDS011;11950;51.230;4.012;2022-12-17T16:41:59;73.80;;;39.30;;
23543;SDS011;11950;51.230;4.012;2022-12-17T16:44:25;72.75;;;40.15;;
23543;SDS011;11950;51.230;4.012;2022-12-17T16:46:52;71.57;;;39.85;;
23543;SDS011;11950;51.230;4.012;2022-12-17T16:49:19;72.15;;;40.60;;
23543;SDS011;11950;51.230;4.012;2022-12-17T16:51:47;76.43;;;39.78;;
23543;SDS011;11950;51.230;4.012;2022-12-17T16:54:19;76.07;;;41.13;;
23543;SDS011;11950;51.230;4.012;2022-12-17T16:56:47;81.25;;;44.47;;
23543;SDS011;11950;51.230;4.012;2022-12-17T16:59:14;80.95;;;41.28;;
23543;SDS011;11950;51.230;4.012;2022-12-17T17:01:42;85.00;;;43.17;;
23543;SDS011;11950;51.230;4.012;2022-12-17T17:04:11;83.75;;;43.50;;
23543;SDS011;11950;51.230;4.012;2022-12-17T17:06:42;80.55;;;42.13;;
23543;SDS011;11950;51.230;4.012;2022-12-17T17:09:14;84.97;;;41.40;;
23543;SDS011;11950;51.230;4.012;2022-12-17T17:11:40;78.60;;;40.30;;
23543;SDS011;11950;51.230;4.012;2022-12-17T17:14:07;79.82;;;40.15;;
23543;SDS011;11950;51.230;4.012;2022-12-17T17:16:35;76.28;;;40.53;;
23543;SDS011;11950;51.230;4.012;2022-12-17T17:19:02;79.43;;;40.22;;
23543;SDS011;11950;51.230;4.012;2022-12-17T17:21:30;77.82;;;38.67;;
23543;SDS011;11950;51.230;4.012;2022-12-17T17:24:05;77.95;;;37.78;;
23543;SDS011;11950;51.230;4.012;2022-12-17T17:26:35;76.55;;;38.03;;
23543;SDS011;11950;51.230;4.012;2022-12-17T17:29:02;75.88;;;37.28;;
23543;SDS011;11950;51.230;4.012;2022-12-17T17:31:29;84.35;;;40.05;;
23543;SDS011;11950;51.230;4.012;2022-12-17T17:33:56;81.32;;;38.53;;
23543;SDS011;11950;51.230;4.012;2022-12-17T17:36:23;80.75;;;37.60;;
23543;SDS011;11950;51.230;4.012;2022-12-17T17:38:52;80.88;;;37.45;;
23543;SDS011;11950;51.230;4.012;2022-12-17T17:41:21;75.30;;;37.42;;
23543;SDS011;11950;51.230;4.012;2022-12-17T17:43:53;77.70;;;38.45;;
23543;SDS011;11950;51.230;4.012;2022-12-17T17:46:20;63.28;;;28.23;;
23543;SDS011;11950;51.230;4.012;2022-12-17T17:48:47;79.30;;;37.58;;